createdAt,value
2018-03-19T00:00:00.084Z,-0.72
2018-03-19T00:01:00.091Z,-0.72
2018-03-19T00:02:00.108Z,-0.73
2018-03-19T00:03:00.113Z,-0.75
2018-03-19T00:04:00.123Z,-0.77
2018-03-19T00:05:00.134Z,-0.65
2018-03-19T00:06:00.149Z,-0.75
2018-03-19T00:07:00.162Z,-0.68
2018-03-19T00:08:00.170Z,-0.73
2018-03-19T00:09:00.181Z,-0.77
2018-03-19T00:10:00.192Z,-0.77
2018-03-19T00:11:00.208Z,-0.86
2018-03-19T00:12:00.212Z,-0.77
2018-03-19T00:13:00.231Z,-0.83
2018-03-19T00:14:00.234Z,-0.86
2018-03-19T00:15:00.249Z,-0.81
2018-03-19T00:16:00.257Z,-0.86
2018-03-19T00:17:00.269Z,-0.80
2018-03-19T00:18:00.282Z,-0.86
2018-03-19T00:19:00.295Z,-0.77
2018-03-19T00:20:00.302Z,-0.92
2018-03-19T00:21:00.318Z,-0.83
2018-03-19T00:22:00.329Z,-0.83
2018-03-19T00:23:00.339Z,-0.89
2018-03-19T00:24:00.351Z,-0.95
2018-03-19T00:25:00.359Z,-0.94
2018-03-19T00:26:00.370Z,-0.94
2018-03-19T00:27:00.381Z,-0.87
2018-03-19T00:28:00.396Z,-0.92
2018-03-19T00:29:00.408Z,-0.92
2018-03-19T00:30:00.414Z,-0.95
2018-03-19T00:31:00.428Z,-0.87
2018-03-19T00:32:00.437Z,-0.94
2018-03-19T00:33:00.454Z,-0.86
2018-03-19T00:34:00.463Z,-0.87
2018-03-19T00:35:00.475Z,-0.87
2018-03-19T00:36:00.487Z,-0.92
2018-03-19T00:37:00.496Z,-0.92
2018-03-19T00:38:00.508Z,-0.95
2018-03-19T00:39:00.518Z,-1.06
2018-03-19T00:40:00.527Z,-1.02
2018-03-19T00:41:00.537Z,-1.05
2018-03-19T00:42:00.554Z,-1.10
2018-03-19T00:43:00.560Z,-1.02
2018-03-19T00:44:00.571Z,-1.06
2018-03-19T00:45:00.582Z,-0.99
2018-03-19T00:46:00.595Z,-1.07
2018-03-19T00:47:00.606Z,-1.00
2018-03-19T00:48:00.619Z,-1.07
2018-03-19T00:49:00.630Z,-0.99
2018-03-19T00:50:00.638Z,-1.05
2018-03-19T00:51:00.651Z,-0.94
2018-03-19T00:52:00.661Z,-1.07
2018-03-19T00:53:00.674Z,-1.06
2018-03-19T00:54:00.687Z,-1.07
2018-03-19T00:55:00.695Z,-1.05
2018-03-19T00:56:00.705Z,-1.06
2018-03-19T00:57:00.713Z,-1.05
2018-03-19T00:58:00.735Z,-1.05
2018-03-19T00:59:00.742Z,-1.06
2018-03-19T01:00:00.754Z,-1.05
2018-03-19T01:01:00.762Z,-1.12
2018-03-19T01:02:00.776Z,-1.06
2018-03-19T01:03:00.783Z,-1.12
2018-03-19T01:04:00.794Z,-1.21
2018-03-19T01:05:00.808Z,-1.10
2018-03-19T01:06:00.822Z,-1.13
2018-03-19T01:07:00.833Z,-1.10
2018-03-19T01:08:00.841Z,-1.09
2018-03-19T01:09:00.853Z,-1.17
2018-03-19T01:10:00.864Z,-1.13
2018-03-19T01:11:00.874Z,-1.21
2018-03-19T01:12:00.884Z,-1.10
2018-03-19T01:13:00.892Z,-1.10
2018-03-19T01:14:00.906Z,-1.10
2018-03-19T01:15:00.918Z,-1.10
2018-03-19T01:16:00.932Z,-1.20
2018-03-19T01:17:00.938Z,-1.12
2018-03-19T01:18:00.950Z,-1.09
2018-03-19T01:19:00.962Z,-1.20
2018-03-19T01:20:00.983Z,-1.23
2018-03-19T01:21:00.982Z,-1.20
2018-03-19T01:22:00.996Z,-1.10
2018-03-19T01:23:01.003Z,-1.18
2018-03-19T01:24:01.016Z,-1.17
2018-03-19T01:25:01.028Z,-1.21
2018-03-19T01:26:01.042Z,-1.27
2018-03-19T01:27:01.055Z,-1.31
2018-03-19T01:28:01.063Z,-1.27
2018-03-19T01:29:01.071Z,-1.24
2018-03-19T01:30:01.080Z,-1.24
2018-03-19T01:31:01.095Z,-1.25
2018-03-19T01:32:01.109Z,-1.27
2018-03-19T01:33:01.121Z,-1.30
2018-03-19T01:34:01.128Z,-1.35
2018-03-19T01:35:01.138Z,-1.33
2018-03-19T01:36:01.147Z,-1.27
2018-03-19T01:37:01.158Z,-1.25
2018-03-19T01:38:01.172Z,-1.25
2018-03-19T01:39:01.181Z,-1.24
2018-03-19T01:40:01.198Z,-1.10
2018-03-19T01:41:01.206Z,-1.13
2018-03-19T01:42:01.213Z,-1.27
2018-03-19T01:43:01.228Z,-1.31
2018-03-19T01:44:01.237Z,-1.25
2018-03-19T01:45:01.250Z,-1.30
2018-03-19T01:46:01.264Z,-1.24
2018-03-19T01:47:01.277Z,-1.20
2018-03-19T01:48:01.282Z,-1.13
2018-03-19T01:49:01.301Z,-1.10
2018-03-19T01:50:01.304Z,-1.24
2018-03-19T01:51:01.312Z,-1.24
2018-03-19T01:52:01.327Z,-1.33
2018-03-19T01:53:01.336Z,-1.31
2018-03-19T01:54:01.351Z,-1.36
2018-03-19T01:55:01.358Z,-1.28
2018-03-19T01:56:01.368Z,-1.21
2018-03-19T01:57:01.375Z,-1.17
2018-03-19T01:58:01.391Z,-1.15
2018-03-19T01:59:01.400Z,-1.15
2018-03-19T02:00:01.418Z,-1.23
2018-03-19T02:01:01.424Z,-1.21
2018-03-19T02:02:01.433Z,-1.38
2018-03-19T02:03:01.442Z,-1.25
2018-03-19T02:04:01.455Z,-1.33
2018-03-19T02:05:01.462Z,-1.33
2018-03-19T02:06:01.479Z,-1.33
2018-03-19T02:07:01.485Z,-1.35
2018-03-19T02:08:01.503Z,-1.36
2018-03-19T02:09:01.511Z,-1.31
2018-03-19T02:10:01.520Z,-1.39
2018-03-19T02:11:01.533Z,-1.43
2018-03-19T02:12:01.541Z,-1.45
2018-03-19T02:13:01.555Z,-1.39
2018-03-19T02:14:01.566Z,-1.45
2018-03-19T02:15:01.578Z,-1.42
2018-03-19T02:16:01.590Z,-1.36
2018-03-19T02:17:01.597Z,-1.49
2018-03-19T02:18:01.607Z,-1.45
2018-03-19T02:19:01.621Z,-1.41
2018-03-19T02:20:01.635Z,-1.35
2018-03-19T02:21:01.641Z,-1.31
2018-03-19T02:22:01.655Z,-1.33
2018-03-19T02:23:01.663Z,-1.33
2018-03-19T02:24:01.692Z,-1.33
2018-03-19T02:25:01.688Z,-1.35
2018-03-19T02:26:01.695Z,-1.33
2018-03-19T02:27:01.708Z,-1.36
2018-03-19T02:28:01.716Z,-1.43
2018-03-19T02:29:01.728Z,-1.48
2018-03-19T02:30:01.738Z,-1.51
2018-03-19T02:31:01.752Z,-1.41
2018-03-19T02:32:01.763Z,-1.41
2018-03-19T02:33:01.777Z,-1.49
2018-03-19T02:34:01.784Z,-1.43
2018-03-19T02:35:01.794Z,-1.42
2018-03-19T02:36:01.803Z,-1.51
2018-03-19T02:37:01.816Z,-1.48
2018-03-19T02:38:01.829Z,-1.59
2018-03-19T02:39:01.837Z,-1.42
2018-03-19T02:40:01.852Z,-1.49
2018-03-19T02:41:01.862Z,-1.51
2018-03-19T02:42:01.877Z,-1.48
2018-03-19T02:43:01.880Z,-1.62
2018-03-19T02:44:01.895Z,-1.64
2018-03-19T02:45:01.903Z,-1.57
2018-03-19T02:46:01.911Z,-1.54
2018-03-19T02:47:01.925Z,-1.59
2018-03-19T02:48:01.935Z,-1.62
2018-03-19T02:49:01.944Z,-1.49
2018-03-19T02:50:01.960Z,-1.54
2018-03-19T02:51:01.973Z,-1.49
2018-03-19T02:52:01.981Z,-1.51
2018-03-19T02:53:01.994Z,-1.57
2018-03-19T02:54:02.002Z,-1.64
2018-03-19T02:55:02.015Z,-1.56
2018-03-19T02:56:02.029Z,-1.45
2018-03-19T02:57:02.030Z,-1.48
2018-03-19T02:58:02.041Z,-1.56
2018-03-19T02:59:02.055Z,-1.43
2018-03-19T03:00:02.068Z,-1.48
2018-03-19T03:01:02.076Z,-1.53
2018-03-19T03:02:02.086Z,-1.56
2018-03-19T03:03:02.099Z,-1.63
2018-03-19T03:04:02.107Z,-1.59
2018-03-19T03:05:02.118Z,-1.63
2018-03-19T03:06:02.127Z,-1.60
2018-03-19T05:05:57.870Z,-2.36
2018-03-19T05:06:57.848Z,-2.33
2018-03-19T05:08:50.759Z,-2.21
2018-03-19T05:09:50.737Z,-2.21
2018-03-19T05:11:43.637Z,-2.32
2018-03-19T05:12:43.636Z,-2.35
2018-03-19T05:14:37.052Z,-2.32
2018-03-19T05:15:37.033Z,-2.36
2018-03-19T05:17:29.939Z,-2.45
2018-03-19T05:18:29.933Z,-2.39
2018-03-19T05:20:22.857Z,-2.48
2018-03-19T05:21:22.838Z,-2.51
2018-03-19T05:23:15.779Z,-2.57
2018-03-19T05:24:15.751Z,-2.47
2018-03-19T05:26:08.664Z,-2.47
2018-03-19T05:27:08.672Z,-2.61
2018-03-19T05:29:01.595Z,-2.68
2018-03-19T05:30:01.577Z,-2.64
2018-03-19T05:31:54.490Z,-2.47
2018-03-19T05:32:54.489Z,-2.40
2018-03-19T05:34:47.417Z,-2.53
2018-03-19T05:35:47.404Z,-2.50
2018-03-19T05:37:40.307Z,-2.42
2018-03-19T05:38:40.334Z,-2.48
2018-03-19T05:40:33.237Z,-2.56
2018-03-19T05:41:33.225Z,-2.63
2018-03-19T05:43:26.134Z,-2.60
2018-03-19T05:44:26.142Z,-2.64
2018-03-19T05:46:19.066Z,-2.53
2018-03-19T05:47:19.048Z,-2.57
2018-03-19T05:49:11.987Z,-2.61
2018-03-19T05:50:11.968Z,-2.58
2018-03-19T05:52:04.871Z,-2.64
2018-03-19T05:53:04.877Z,-2.66
2018-03-19T05:54:57.802Z,-2.58
2018-03-19T05:55:57.793Z,-2.64
2018-03-19T05:57:50.702Z,-2.51
2018-03-19T05:58:50.709Z,-2.47
2018-03-19T06:00:43.634Z,-2.54
2018-03-19T06:01:43.615Z,-2.54
2018-03-19T06:03:36.527Z,-2.43
2018-03-19T06:04:36.535Z,-2.51
2018-03-19T06:06:29.474Z,-2.58
2018-03-19T06:07:29.444Z,-2.51
2018-03-19T06:09:22.395Z,-2.68
2018-03-19T06:10:22.362Z,-2.60
2018-03-19T06:12:15.268Z,-2.64
2018-03-19T06:13:15.275Z,-2.51
2018-03-19T06:15:08.205Z,-2.51
2018-03-19T06:16:08.189Z,-2.47
2018-03-19T06:18:01.100Z,-2.35
2018-03-19T06:19:01.104Z,-2.20
2018-03-19T06:20:54.037Z,-2.24
2018-03-19T06:21:54.024Z,-2.16
2018-03-19T06:23:46.927Z,-2.14
2018-03-19T06:24:46.934Z,-2.10
2018-03-19T06:26:39.863Z,-2.14
2018-03-19T06:27:39.846Z,-2.08
2018-03-19T06:29:32.756Z,-2.02
2018-03-19T06:30:32.761Z,-1.99
2018-03-19T06:32:25.688Z,-1.96
2018-03-19T06:33:25.694Z,-2.02
2018-03-19T06:35:18.621Z,-1.84
2018-03-19T06:36:18.594Z,-1.85
2018-03-19T06:38:11.501Z,-1.84
2018-03-19T06:39:11.515Z,-1.72
2018-03-19T06:41:04.442Z,-1.62
2018-03-19T06:42:04.423Z,-1.49
2018-03-19T06:43:57.342Z,-1.36
2018-03-19T06:44:57.343Z,-1.33
2018-03-19T06:46:50.272Z,-1.39
2018-03-19T06:47:50.258Z,-1.23
2018-03-19T06:49:43.170Z,-1.12
2018-03-19T06:50:43.180Z,-1.30
2018-03-19T06:52:36.108Z,-1.13
2018-03-19T06:53:36.093Z,-0.97
2018-03-19T06:55:29.053Z,-0.75
2018-03-19T06:56:29.008Z,-0.68
2018-03-19T06:58:21.942Z,-0.54
2018-03-19T06:59:21.926Z,-0.70
2018-03-19T07:01:14.839Z,-0.75
2018-03-19T07:02:14.849Z,-0.73
2018-03-19T07:04:07.783Z,-0.69
2018-03-19T07:05:07.767Z,-0.73
2018-03-19T07:07:00.708Z,-0.75
2018-03-19T07:08:00.691Z,-0.72
2018-03-19T07:09:53.613Z,-0.72
2018-03-19T07:10:53.621Z,-0.77
2018-03-19T07:12:46.598Z,-0.78
2018-03-19T07:13:46.573Z,-0.65
2018-03-19T07:15:39.525Z,-0.75
2018-03-19T07:16:39.532Z,-0.72
2018-03-19T07:18:32.491Z,-0.84
2018-03-19T07:19:32.487Z,-0.78
2018-03-19T07:21:25.424Z,-0.99
2018-03-19T07:22:25.453Z,-0.99
2018-03-19T07:24:18.412Z,-1.06
2018-03-19T07:25:18.385Z,-1.07
2018-03-19T07:27:11.329Z,-1.09
2018-03-19T07:28:11.338Z,-1.12
2018-03-19T07:30:04.337Z,-1.20
2018-03-19T07:31:04.312Z,-1.23
2018-03-19T07:32:57.238Z,-1.15
2018-03-19T07:33:57.246Z,-1.21
2018-03-19T07:35:50.210Z,-1.20
2018-03-19T07:36:50.197Z,-1.25
2018-03-19T07:38:43.163Z,-1.23
2018-03-19T07:39:43.149Z,-1.23
2018-03-19T07:41:36.094Z,-1.20
2018-03-19T07:42:36.101Z,-1.10
2018-03-19T07:44:29.090Z,-1.10
2018-03-19T07:45:29.075Z,-1.13
2018-03-19T07:47:22.001Z,-1.07
2018-03-19T07:48:22.010Z,-1.06
2018-03-19T07:50:15.520Z,-0.92
2018-03-19T07:51:15.471Z,-0.83
2018-03-19T07:53:08.422Z,-0.91
2018-03-19T07:54:08.427Z,-1.02
2018-03-19T07:56:01.397Z,-0.91
2018-03-19T07:57:01.380Z,-0.89
2018-03-19T07:58:54.336Z,-0.86
2018-03-19T07:59:54.338Z,-0.77
2018-03-19T08:01:47.295Z,-0.78
2018-03-19T08:02:47.287Z,-0.83
2018-03-19T08:04:40.248Z,-0.83
2018-03-19T08:05:40.237Z,-0.77
2018-03-19T08:07:33.183Z,-0.70
2018-03-19T08:08:33.187Z,-0.68
2018-03-19T08:10:26.157Z,-0.60
2018-03-19T08:11:26.143Z,-0.73
2018-03-19T08:13:19.089Z,-0.60
2018-03-19T08:14:19.095Z,-0.57
2018-03-19T08:16:12.113Z,-0.54
2018-03-19T08:17:12.052Z,-0.52
2018-03-19T08:19:04.997Z,-0.45
2018-03-19T08:20:05.001Z,-0.41
2018-03-19T08:21:57.931Z,-0.36
2018-03-19T08:22:57.918Z,-0.37
2018-03-19T08:24:50.902Z,-0.34
2018-03-19T08:25:51.009Z,-0.34
2018-03-19T08:27:43.875Z,-0.29
2018-03-19T08:28:43.863Z,-0.33
2018-03-19T08:30:36.800Z,-0.23
2018-03-19T08:31:36.786Z,-0.26
2018-03-19T08:33:29.760Z,-0.27
2018-03-19T08:34:29.766Z,-0.29
2018-03-19T08:36:22.736Z,-0.26
2018-03-19T08:37:22.725Z,-0.22
2018-03-19T08:39:15.671Z,-0.12
2018-03-19T08:40:15.678Z,-0.06
2018-03-19T08:42:08.639Z,0.03
2018-03-19T08:43:08.639Z,0.10
2018-03-19T08:45:01.570Z,0.27
2018-03-19T08:46:01.578Z,0.20
2018-03-19T08:47:54.565Z,0.18
2018-03-19T08:48:54.530Z,0.18
2018-03-19T08:50:47.439Z,0.18
2018-03-19T08:51:47.446Z,0.38
2018-03-19T08:53:40.391Z,0.34
2018-03-19T08:54:40.377Z,0.31
2018-03-19T08:56:33.313Z,0.18
2018-03-19T08:57:33.299Z,0.27
2018-03-19T08:59:27.722Z,0.53
2018-03-19T09:00:27.712Z,0.43
2018-03-19T09:02:20.660Z,0.42
2018-03-19T09:03:20.649Z,0.27
2018-03-19T09:05:13.576Z,0.43
2018-03-19T09:06:13.610Z,0.45
2018-03-19T09:08:06.546Z,0.49
2018-03-19T09:09:06.531Z,0.53
2018-03-19T09:10:59.481Z,0.60
2018-03-19T09:11:59.488Z,0.60
2018-03-19T09:13:52.437Z,0.43
2018-03-19T09:14:52.423Z,0.36
2018-03-19T09:16:45.347Z,0.24
2018-03-19T09:17:45.338Z,0.31
2018-03-19T09:19:38.401Z,0.45
2018-03-19T09:20:38.392Z,0.43
2018-03-19T09:22:31.361Z,0.57
2018-03-19T09:23:31.353Z,0.43
2018-03-19T09:25:24.297Z,0.57
2018-03-19T09:26:24.303Z,0.65
2018-03-19T09:28:17.270Z,0.71
2018-03-19T09:29:17.261Z,0.65
2018-03-19T09:31:10.210Z,0.52
2018-03-19T09:32:10.214Z,0.53
2018-03-19T09:34:03.181Z,0.62
2018-03-19T09:35:03.190Z,0.43
2018-03-19T09:36:56.131Z,0.61
2018-03-19T09:37:56.128Z,0.43
2018-03-19T09:39:49.119Z,0.65
2018-03-19T09:40:49.083Z,0.43
2018-03-19T09:42:42.050Z,0.30
2018-03-19T09:43:42.044Z,0.28
2018-03-19T09:45:35.026Z,0.38
2018-03-19T09:46:34.995Z,0.36
2018-03-19T09:48:27.922Z,0.45
2018-03-19T09:49:27.911Z,0.36
2018-03-19T09:51:20.899Z,0.41
2018-03-19T09:52:20.910Z,0.28
2018-03-19T09:54:13.878Z,0.30
2018-03-19T09:55:13.860Z,0.36
2018-03-19T09:57:07.317Z,0.42
2018-03-19T09:58:07.330Z,0.41
2018-03-19T10:00:00.294Z,0.53
2018-03-19T10:01:00.285Z,0.61
2018-03-19T10:02:53.261Z,0.72
2018-03-19T10:03:53.240Z,0.76
2018-03-19T10:05:46.184Z,0.76
2018-03-19T10:06:46.193Z,0.72
2018-03-19T10:08:39.164Z,0.53
2018-03-19T10:09:39.148Z,0.68
2018-03-19T10:11:32.141Z,0.83
2018-03-19T10:12:32.104Z,0.94
2018-03-19T10:14:25.075Z,1.00
2018-03-19T10:15:25.061Z,1.04
2018-03-19T10:17:18.012Z,0.98
2018-03-19T10:18:18.014Z,1.06
2018-03-19T10:20:11.503Z,1.16
2018-03-19T10:21:11.484Z,1.14
2018-03-19T10:23:04.944Z,1.10
2018-03-19T10:24:04.952Z,1.04
2018-03-19T10:25:57.925Z,0.90
2018-03-19T10:26:57.916Z,0.97
2018-03-19T10:28:51.390Z,0.98
2018-03-19T10:29:51.374Z,1.00
2018-03-19T10:31:45.861Z,0.97
2018-03-19T10:32:45.867Z,1.00
2018-03-19T10:34:40.357Z,1.15
2018-03-19T10:35:40.343Z,1.16
2018-03-19T10:37:34.828Z,1.32
2018-03-19T10:38:34.840Z,1.47
2018-03-19T10:40:28.265Z,1.26
2018-03-19T10:41:28.254Z,1.28
2018-03-19T10:43:22.699Z,1.47
2018-03-19T10:44:22.670Z,1.44
2018-03-19T10:46:16.081Z,1.36
2018-03-19T10:47:16.088Z,1.54
2018-03-19T10:49:09.123Z,1.61
2018-03-19T10:50:09.104Z,1.54
2018-03-19T10:52:02.047Z,1.54
2018-03-19T10:53:02.055Z,1.68
2018-03-19T10:54:56.558Z,1.54
2018-03-19T10:55:56.591Z,1.68
2018-03-19T10:57:50.007Z,1.69
2018-03-19T10:58:50.014Z,1.65
2018-03-19T11:00:43.491Z,1.78
2018-03-19T11:01:43.476Z,1.83
2018-03-19T11:03:36.938Z,1.94
2018-03-19T11:04:36.961Z,1.93
2018-03-19T11:06:29.905Z,2.17
2018-03-19T11:07:29.899Z,2.22
2018-03-19T11:09:22.860Z,2.20
2018-03-19T11:10:22.845Z,2.15
2018-03-19T11:12:17.358Z,1.85
2018-03-19T11:13:17.338Z,1.99
2018-03-19T11:15:10.811Z,2.23
2018-03-19T11:16:10.803Z,2.33
2018-03-19T11:18:05.286Z,2.63
2018-03-19T11:19:05.293Z,2.48
2018-03-19T11:20:58.768Z,2.23
2018-03-19T11:21:58.754Z,2.19
2018-03-19T11:23:51.704Z,1.89
2018-03-19T11:24:51.708Z,1.82
2018-03-19T11:26:44.670Z,1.76
2018-03-19T11:27:44.660Z,2.10
2018-03-19T11:29:37.610Z,2.44
2018-03-19T11:30:37.601Z,2.34
2018-03-19T11:32:30.562Z,2.34
2018-03-19T11:33:30.570Z,2.38
2018-03-19T11:35:23.543Z,2.49
2018-03-19T11:36:23.521Z,2.46
2018-03-19T11:38:16.489Z,2.35
2018-03-19T11:39:16.481Z,2.48
2018-03-19T11:41:10.981Z,2.44
2018-03-19T11:42:10.963Z,2.51
2018-03-19T11:44:03.933Z,2.40
2018-03-19T11:45:04.016Z,2.38
2018-03-19T11:47:01.901Z,2.41
2018-03-19T11:48:02.027Z,2.48
2018-03-19T11:49:56.483Z,2.61
2018-03-19T11:50:56.376Z,2.64
2018-03-19T11:51:56.394Z,2.76
2018-03-19T11:52:56.464Z,2.77
2018-03-19T11:53:56.433Z,2.79
2018-03-19T11:54:56.435Z,2.88
2018-03-19T11:55:56.446Z,2.89
2018-03-19T11:56:56.478Z,2.87
2018-03-19T11:57:56.494Z,2.69
2018-03-19T11:58:56.488Z,2.63
2018-03-19T11:59:56.548Z,2.67
2018-03-19T12:00:56.515Z,2.69
2018-03-19T12:01:56.539Z,2.77
2018-03-19T12:02:56.549Z,2.84
2018-03-19T12:03:56.559Z,2.81
2018-03-19T12:04:56.572Z,2.59
2018-03-19T12:05:56.585Z,2.66
2018-03-19T12:06:56.600Z,2.51
2018-03-19T12:07:56.621Z,2.53
2018-03-19T12:08:56.625Z,2.59
2018-03-19T12:09:56.643Z,2.77
2018-03-19T12:10:56.655Z,2.76
2018-03-19T12:11:56.672Z,2.74
2018-03-19T12:12:56.689Z,2.74
2018-03-19T12:13:56.696Z,2.84
2018-03-19T12:14:56.711Z,2.88
2018-03-19T12:15:56.725Z,2.92
2018-03-19T12:16:56.739Z,2.87
2018-03-19T12:17:56.753Z,2.87
2018-03-19T12:18:56.766Z,2.91
2018-03-19T12:19:56.784Z,2.91
2018-03-19T12:20:56.797Z,2.89
2018-03-19T12:21:56.811Z,2.91
2018-03-19T12:22:56.823Z,2.88
2018-03-19T12:23:56.838Z,2.98
2018-03-19T12:24:56.855Z,2.95
2018-03-19T12:25:56.865Z,3.21
2018-03-19T12:26:56.881Z,3.20
2018-03-19T12:27:56.896Z,3.39
2018-03-19T12:28:56.909Z,3.53
2018-03-19T12:29:56.921Z,3.34
2018-03-19T12:30:56.935Z,3.46
2018-03-19T12:31:56.951Z,3.44
2018-03-19T12:32:56.967Z,3.46
2018-03-19T12:33:56.980Z,3.28
2018-03-19T12:34:56.992Z,3.28
2018-03-19T12:35:57.011Z,3.36
2018-03-19T12:36:57.024Z,3.42
2018-03-19T12:37:57.043Z,3.36
2018-03-19T12:38:57.054Z,3.44
2018-03-19T12:39:57.078Z,3.36
2018-03-19T12:40:57.083Z,3.36
2018-03-19T12:41:57.124Z,3.21
2018-03-19T12:42:57.111Z,3.21
2018-03-19T12:43:57.123Z,3.31
2018-03-19T12:44:57.157Z,3.36
2018-03-19T12:45:57.155Z,3.28
2018-03-19T12:46:57.172Z,3.39
2018-03-19T12:47:57.189Z,3.34
2018-03-19T12:48:57.203Z,3.36
2018-03-19T12:49:57.210Z,3.47
2018-03-19T12:50:57.319Z,3.54
2018-03-19T12:51:57.248Z,3.57
2018-03-19T12:52:57.256Z,3.60
2018-03-19T12:53:57.270Z,3.47
2018-03-19T12:54:57.289Z,3.60
2018-03-19T12:55:57.346Z,3.58
2018-03-19T12:56:57.312Z,3.49
2018-03-19T12:57:57.325Z,3.47
2018-03-19T12:58:57.339Z,3.49
2018-03-19T12:59:57.354Z,3.49
2018-03-19T13:00:57.370Z,3.54
2018-03-19T13:01:57.383Z,3.61
2018-03-19T13:02:57.400Z,3.58
2018-03-19T13:03:57.417Z,3.58
2018-03-19T13:04:57.478Z,3.62
2018-03-19T13:05:57.519Z,3.68
2018-03-19T13:06:57.616Z,3.61
2018-03-19T13:07:57.474Z,3.68
2018-03-19T13:08:57.526Z,3.83
2018-03-19T13:09:57.500Z,3.79
2018-03-19T13:10:57.516Z,3.71
2018-03-19T13:11:57.528Z,3.71
2018-03-19T13:12:57.555Z,3.71
2018-03-19T13:13:57.561Z,3.80
2018-03-19T13:14:57.576Z,3.83
2018-03-19T13:15:57.588Z,3.65
2018-03-19T13:16:57.604Z,3.71
2018-03-19T13:17:57.619Z,3.68
2018-03-19T13:18:57.632Z,3.80
2018-03-19T13:19:57.645Z,3.85
2018-03-19T13:20:57.661Z,3.97
2018-03-19T13:21:57.675Z,3.86
2018-03-19T13:22:57.692Z,3.89
2018-03-19T13:23:57.709Z,3.75
2018-03-19T13:24:57.720Z,3.72
2018-03-19T13:25:57.734Z,3.68
2018-03-19T13:26:57.751Z,3.65
2018-03-19T13:27:57.762Z,3.72
2018-03-19T13:28:57.777Z,3.82
2018-03-19T13:29:57.791Z,3.98
2018-03-19T13:30:57.809Z,4.04
2018-03-19T13:31:57.823Z,4.06
2018-03-19T13:32:57.837Z,4.06
2018-03-19T13:33:57.852Z,4.08
2018-03-19T13:34:57.869Z,4.07
2018-03-19T13:35:57.882Z,4.18
2018-03-19T13:36:57.897Z,4.26
2018-03-19T13:37:57.909Z,4.18
2018-03-19T13:38:57.927Z,4.21
2018-03-19T13:39:57.992Z,4.18
2018-03-19T13:40:57.956Z,4.12
2018-03-19T13:41:57.972Z,3.98
2018-03-19T13:42:57.988Z,4.06
2018-03-19T13:43:57.999Z,4.14
2018-03-19T13:44:58.014Z,4.15
2018-03-19T13:45:58.036Z,4.12
2018-03-19T13:46:58.044Z,4.12
2018-03-19T13:47:58.060Z,4.10
2018-03-19T13:48:58.075Z,4.14
2018-03-19T13:49:58.093Z,4.07
2018-03-19T13:50:58.106Z,3.97
2018-03-19T13:51:58.121Z,4.10
2018-03-19T13:52:58.134Z,4.19
2018-03-19T13:53:58.150Z,4.26
2018-03-19T13:54:58.162Z,4.24
2018-03-19T13:55:58.182Z,4.18
2018-03-19T13:56:58.194Z,4.15
2018-03-19T13:57:58.210Z,4.21
2018-03-19T13:58:58.223Z,4.18
2018-03-19T13:59:58.239Z,4.10
2018-03-19T14:00:58.254Z,4.16
2018-03-19T14:01:58.272Z,4.10
2018-03-19T14:02:58.287Z,4.06
2018-03-19T14:03:58.296Z,4.16
2018-03-19T14:04:58.317Z,4.28
2018-03-19T14:05:58.329Z,4.24
2018-03-19T14:06:58.343Z,4.37
2018-03-19T14:07:58.358Z,4.22
2018-03-19T14:08:58.371Z,4.28
2018-03-19T14:09:58.397Z,4.21
2018-03-19T14:10:58.402Z,4.25
2018-03-19T14:11:58.418Z,4.29
2018-03-19T14:12:58.432Z,4.51
2018-03-19T14:13:58.447Z,4.46
2018-03-19T14:14:58.459Z,4.36
2018-03-19T14:15:58.474Z,4.34
2018-03-19T14:16:58.602Z,4.33
2018-03-19T14:17:58.506Z,4.34
2018-03-19T14:18:58.523Z,4.42
2018-03-19T14:19:58.535Z,4.37
2018-03-19T14:20:58.554Z,4.37
2018-03-19T14:21:58.565Z,4.37
2018-03-19T14:22:58.593Z,4.44
2018-03-19T14:23:58.595Z,4.46
2018-03-19T14:24:58.610Z,4.39
2018-03-19T14:25:58.625Z,4.33
2018-03-19T14:26:58.641Z,4.18
2018-03-19T14:27:58.704Z,4.25
2018-03-19T14:28:58.669Z,4.25
2018-03-19T14:29:58.686Z,4.33
2018-03-19T14:30:58.700Z,4.44
2018-03-19T14:31:58.715Z,4.51
2018-03-19T14:32:58.731Z,4.47
2018-03-19T14:33:58.742Z,4.43
2018-03-19T14:34:58.759Z,4.43
2018-03-19T14:35:58.776Z,4.52
2018-03-19T14:36:58.789Z,4.55
2018-03-19T14:37:58.809Z,4.51
2018-03-19T14:38:58.820Z,4.39
2018-03-19T14:39:58.836Z,4.21
2018-03-19T14:40:58.865Z,4.22
2018-03-19T14:41:58.865Z,4.34
2018-03-19T14:42:58.879Z,4.54
2018-03-19T14:43:58.892Z,4.52
2018-03-19T14:44:58.912Z,4.44
2018-03-19T14:45:58.923Z,4.47
2018-03-19T14:46:58.990Z,4.40
2018-03-19T14:47:58.954Z,4.36
2018-03-19T14:48:58.969Z,4.44
2018-03-19T14:49:58.983Z,4.51
2018-03-19T14:50:59.000Z,4.47
2018-03-19T14:51:59.015Z,4.36
2018-03-19T14:52:59.028Z,4.40
2018-03-19T14:53:59.044Z,4.40
2018-03-19T14:54:59.060Z,4.39
2018-03-19T14:55:59.072Z,4.51
2018-03-19T14:56:59.095Z,4.47
2018-03-19T14:57:59.112Z,4.46
2018-03-19T14:58:59.119Z,4.46
2018-03-19T14:59:59.134Z,4.42
2018-03-19T15:00:59.148Z,4.37
2018-03-19T15:01:59.161Z,4.51
2018-03-19T15:02:59.179Z,4.29
2018-03-19T15:03:59.194Z,4.32
2018-03-19T15:04:59.208Z,4.29
2018-03-19T15:05:59.224Z,4.25
2018-03-19T15:06:59.236Z,4.25
2018-03-19T15:07:59.254Z,4.22
2018-03-19T15:08:59.269Z,4.24
2018-03-19T15:09:59.281Z,4.28
2018-03-19T15:10:59.295Z,4.47
2018-03-19T15:11:59.316Z,4.54
2018-03-19T15:12:59.327Z,4.47
2018-03-19T15:13:59.344Z,4.36
2018-03-19T15:14:59.361Z,4.46
2018-03-19T15:15:59.369Z,4.40
2018-03-19T15:16:59.388Z,4.32
2018-03-19T15:17:59.401Z,4.39
2018-03-19T15:18:59.421Z,4.36
2018-03-19T15:19:59.430Z,4.32
2018-03-19T15:20:59.444Z,4.33
2018-03-19T15:21:59.460Z,4.39
2018-03-19T15:22:59.477Z,4.37
2018-03-19T15:23:59.492Z,4.37
2018-03-19T15:24:59.504Z,4.50
2018-03-19T15:25:59.518Z,4.51
2018-03-19T15:26:59.537Z,4.51
2018-03-19T15:27:59.552Z,4.43
2018-03-19T15:28:59.565Z,4.28
2018-03-19T15:29:59.577Z,4.36
2018-03-19T15:30:59.593Z,4.43
2018-03-19T15:31:59.609Z,4.44
2018-03-19T15:32:59.622Z,4.37
2018-03-19T15:33:59.639Z,4.46
2018-03-19T15:34:59.653Z,4.50
2018-03-19T15:35:59.676Z,4.40
2018-03-19T15:36:59.682Z,4.40
2018-03-19T15:37:59.696Z,4.34
2018-03-19T15:38:59.713Z,4.33
2018-03-19T15:39:59.726Z,4.33
2018-03-19T15:40:59.743Z,4.34
2018-03-19T15:41:59.756Z,4.42
2018-03-19T15:42:59.771Z,4.39
2018-03-19T15:43:59.811Z,4.36
2018-03-19T15:44:59.800Z,4.22
2018-03-19T15:45:59.820Z,4.28
2018-03-19T15:46:59.829Z,4.25
2018-03-19T15:47:59.844Z,4.25
2018-03-19T15:48:59.862Z,4.29
2018-03-19T15:49:59.875Z,4.42
2018-03-19T15:50:59.888Z,4.42
2018-03-19T15:51:59.904Z,4.39
2018-03-19T15:52:59.918Z,4.46
2018-03-19T15:53:59.934Z,4.33
2018-03-19T15:54:59.948Z,4.25
2018-03-19T15:55:59.964Z,4.14
2018-03-19T15:56:59.979Z,4.19
2018-03-19T15:57:59.990Z,4.14
2018-03-19T15:59:00.017Z,4.07
2018-03-19T16:00:00.026Z,4.19
2018-03-19T16:01:00.036Z,4.16
2018-03-19T16:02:00.050Z,4.15
2018-03-19T16:03:00.064Z,4.14
2018-03-19T16:04:00.079Z,4.08
2018-03-19T16:05:00.094Z,4.12
2018-03-19T16:06:00.109Z,4.06
2018-03-19T16:07:00.122Z,4.08
2018-03-19T16:08:00.140Z,4.06
2018-03-19T16:09:00.159Z,4.10
2018-03-19T16:10:00.169Z,4.10
2018-03-19T16:11:00.181Z,3.94
2018-03-19T16:12:00.198Z,3.97
2018-03-19T16:13:00.213Z,3.94
2018-03-19T16:14:00.224Z,3.94
2018-03-19T16:15:00.248Z,4.04
2018-03-19T16:16:00.258Z,4.03
2018-03-19T16:17:00.271Z,4.14
2018-03-19T16:18:00.295Z,4.12
2018-03-19T16:19:00.302Z,4.12
2018-03-19T16:20:00.316Z,4.10
2018-03-19T16:21:00.327Z,4.00
2018-03-19T16:22:00.343Z,4.00
2018-03-19T16:23:00.358Z,4.00
2018-03-19T16:24:00.373Z,3.94
2018-03-19T16:25:00.387Z,3.96
2018-03-19T16:26:00.400Z,4.07
2018-03-19T16:27:00.416Z,4.10
2018-03-19T16:28:00.431Z,3.97
2018-03-19T16:29:00.448Z,3.97
2018-03-19T16:30:00.458Z,3.82
2018-03-19T16:31:00.474Z,4.00
2018-03-19T16:32:00.489Z,4.04
2018-03-19T16:33:00.505Z,4.00
2018-03-19T16:34:00.519Z,3.97
2018-03-19T16:35:00.530Z,3.86
2018-03-19T16:36:00.549Z,3.86
2018-03-19T16:37:00.562Z,3.85
2018-03-19T16:38:00.575Z,3.82
2018-03-19T16:39:00.591Z,3.89
2018-03-19T16:40:00.602Z,3.83
2018-03-19T16:41:00.620Z,3.82
2018-03-19T16:42:00.633Z,3.75
2018-03-19T16:43:00.648Z,3.78
2018-03-19T16:44:00.659Z,3.70
2018-03-19T16:45:00.683Z,3.68
2018-03-19T16:46:00.691Z,3.62
2018-03-19T16:47:00.707Z,3.67
2018-03-19T16:48:00.717Z,3.76
2018-03-19T16:49:00.733Z,3.67
2018-03-19T16:50:00.746Z,3.64
2018-03-19T16:51:00.762Z,3.64
2018-03-19T16:52:00.779Z,3.68
2018-03-19T16:53:00.794Z,3.58
2018-03-19T16:54:00.806Z,3.54
2018-03-19T16:55:00.818Z,3.61
2018-03-19T16:56:00.834Z,3.47
2018-03-19T16:57:00.846Z,3.53
2018-03-19T16:58:00.863Z,3.49
2018-03-19T16:59:00.876Z,3.47
2018-03-19T17:00:00.893Z,3.52
2018-03-19T17:01:00.904Z,3.42
2018-03-19T17:02:00.919Z,3.43
2018-03-19T17:03:00.934Z,3.40
2018-03-19T17:04:00.944Z,3.34
2018-03-19T17:05:00.960Z,3.33
2018-03-19T17:06:00.977Z,3.33
2018-03-19T17:07:01.044Z,3.21
2018-03-19T17:08:01.003Z,3.27
2018-03-19T17:09:01.019Z,3.25
2018-03-19T17:10:01.029Z,3.28